Time;durP1;ratioP1;P1;durP2;ratioP2;P2;SDS_P1;SDS_P2;PMS_P1;PMS_P2;Temp;Humidity;BMP_temperature;BMP_pressure;BME280_temperature;BME280_humidity;BME280_pressure;Samples;Min_cycle;Max_cycle;Signal;HPM_P1;HPM_P2
2023/01/28 00:01:13;;;;;;;;;;;27.30;99.90;;;;;;5010507;28;20305;-67
2023/01/28 00:03:40;;;;;;;;;;;27.30;99.90;;;;;;5011266;28;19966;-68
2023/01/28 00:06:11;;;;;;;;;;;27.30;99.90;;;;;;5010527;28;20013;-69
2023/01/28 00:08:38;;;;;;;;;;;27.20;99.90;;;;;;5010887;28;20374;-72
2023/01/28 00:11:05;;;;;;;;;;;27.10;99.90;;;;;;5010167;28;19965;-75
2023/01/28 00:13:33;;;;;;;;;;;27.00;99.90;;;;;;5010945;28;19920;-70
2023/01/28 00:16:03;;;;;;;;;;;27.00;99.90;;;;;;5011153;28;19956;-76
2023/01/28 00:18:30;;;;;;;;;;;27.00;99.90;;;;;;5011219;28;20324;-76
2023/01/28 00:21:00;;;;;;;;;;;27.10;99.90;;;;;;5009771;28;19952;-73
2023/01/28 00:23:28;;;;;;;;;;;27.10;99.90;;;;;;5010642;28;19910;-75
2023/01/28 00:25:57;;;;;;;;;;;27.30;99.90;;;;;;5010633;28;19921;-74
2023/01/28 00:28:23;;;;;;;;;;;27.30;99.90;;;;;;5010881;28;19909;-67
2023/01/28 00:30:50;;;;;;;;;;;27.30;99.90;;;;;;5009603;28;19948;-71
2023/01/28 00:33:17;;;;;;;;;;;27.30;99.90;;;;;;5010604;28;19917;-76
2023/01/28 00:35:43;;;;;;;;;;;27.30;99.90;;;;;;5010717;28;20360;-74
2023/01/28 00:38:10;;;;;;;;;;;27.60;99.90;;;;;;5010424;28;19956;-73
2023/01/28 00:40:37;;;;;;;;;;;27.80;99.90;;;;;;5010294;28;20319;-71
2023/01/28 00:43:03;;;;;;;;;;;27.90;99.90;;;;;;5010601;28;19914;-74
2023/01/28 00:45:30;;;;;;;;;;;27.90;99.90;;;;;;5009371;28;20016;-74
2023/01/28 00:47:57;;;;;;;;;;;27.90;99.90;;;;;;5010520;28;20044;-75
2023/01/28 00:50:23;;;;;;;;;;;27.80;99.90;;;;;;5009998;28;19963;-72
2023/01/28 00:52:50;;;;;;;;;;;27.90;99.90;;;;;;5010058;28;19959;-70
2023/01/28 00:55:17;;;;;;;;;;;27.90;99.90;;;;;;5010148;28;20384;-68
2023/01/28 00:57:43;;;;;;;;;;;28.00;99.90;;;;;;5028582;28;19992;-67
2023/01/28 01:00:10;;;;;;;;;;;28.20;99.90;;;;;;5020372;28;20008;-72
2023/01/28 01:02:37;;;;;;;;;;;28.40;99.90;;;;;;5009391;28;19909;-67
2023/01/28 01:05:04;;;;;;;;;;;28.40;99.90;;;;;;5009898;28;19919;-65
2023/01/28 01:07:43;;;;;;;;;;;28.60;99.90;;;;;;5009357;28;20406;-74
2023/01/28 01:10:09;;;;;;;;;;;28.70;99.90;;;;;;5009684;28;20012;-71
2023/01/28 01:12:36;;;;;;;;;;;28.90;99.90;;;;;;5009918;28;19932;-68
2023/01/28 01:15:03;;;;;;;;;;;29.30;99.90;;;;;;5009203;28;19913;-73
2023/01/28 01:17:30;;;;;;;;;;;29.90;99.90;;;;;;5009183;28;19913;-66
2023/01/28 01:19:57;;;;;;;;;;;30.50;99.90;;;;;;5009761;28;19913;-72
2023/01/28 01:22:24;;;;;;;;;;;30.80;99.90;;;;;;5009311;28;19909;-66
2023/01/28 01:24:50;;;;;;;;;;;31.20;99.90;;;;;;5010200;28;20430;-71
2023/01/28 01:27:17;;;;;;;;;;;31.40;99.90;;;;;;5009978;28;20356;-68
2023/01/28 01:29:44;;;;;;;;;;;31.50;99.90;;;;;;5009907;28;19909;-68
2023/01/28 01:32:10;;;;;;;;;;;31.60;99.90;;;;;;5009145;28;19921;-71
2023/01/28 01:34:37;;;;;;;;;;;32.00;99.90;;;;;;5010767;28;20035;-70
2023/01/28 01:37:05;;;;;;;;;;;32.00;99.90;;;;;;5011680;28;19913;-66
2023/01/28 01:39:31;;;;;;;;;;;32.10;99.90;;;;;;5011709;28;19921;-68
2023/01/28 01:41:58;;;;;;;;;;;32.20;99.90;;;;;;5011391;28;19910;-70
2023/01/28 01:44:44;;;;;;;;;;;31.90;99.90;;;;;;5010811;28;20268;-67
2023/01/28 01:47:11;;;;;;;;;;;32.00;99.90;;;;;;5010652;28;19914;-74
2023/01/28 01:49:38;;;;;;;;;;;32.30;99.90;;;;;;5011363;28;20010;-72
2023/01/28 01:52:09;;;;;;;;;;;32.50;99.90;;;;;;4993733;28;19924;-75
2023/01/28 01:54:37;;;;;;;;;;;32.70;99.90;;;;;;5012038;28;19925;-74
2023/01/28 01:57:04;;;;;;;;;;;32.40;99.90;;;;;;5011977;28;19914;-66
2023/01/28 01:59:41;;;;;;;;;;;32.10;99.90;;;;;;5000512;28;20280;-75
2023/01/28 02:02:09;;;;;;;;;;;31.90;99.90;;;;;;4990402;28;19965;-69
2023/01/28 02:04:38;;;;;;;;;;;31.60;99.90;;;;;;4991959;28;19918;-75
2023/01/28 02:07:04;;;;;;;;;;;31.10;99.90;;;;;;5001188;28;19968;-71
2023/01/28 02:09:37;;;;;;;;;;;30.40;99.90;;;;;;5010696;28;19952;-69
2023/01/28 02:12:09;;;;;;;;;;;30.00;99.90;;;;;;5010051;28;20364;-69
2023/01/28 02:14:39;;;;;;;;;;;29.80;99.90;;;;;;5010292;28;20472;-66
2023/01/28 02:17:06;;;;;;;;;;;29.80;99.90;;;;;;5010785;28;19921;-74
2023/01/28 02:19:52;;;;;;;;;;;29.80;99.90;;;;;;5013850;28;19996;-72
2023/01/28 02:22:37;;;;;;;;;;;29.60;99.90;;;;;;5013688;28;19936;-76
2023/01/28 02:25:30;;;;;;;;;;;29.50;99.90;;;;;;5014904;28;19909;-67
2023/01/28 02:28:13;;;;;;;;;;;29.50;99.90;;;;;;5014448;28;20446;-73
2023/01/28 02:30:51;;;;;;;;;;;29.50;99.90;;;;;;5014526;28;19918;-67
2023/01/28 02:33:23;;;;;;;;;;;29.40;99.90;;;;;;5013804;28;20336;-75
2023/01/28 02:35:53;;;;;;;;;;;29.50;99.90;;;;;;5014581;28;20375;-74
2023/01/28 02:38:45;;;;;;;;;;;29.30;99.90;;;;;;5014679;28;20300;-68
2023/01/28 02:41:19;;;;;;;;;;;29.20;99.90;;;;;;5011617;28;19917;-66
2023/01/28 02:43:46;;;;;;;;;;;29.10;99.90;;;;;;5018808;28;20332;-66
2023/01/28 02:49:03;;;;;;;;;;;29.00;99.90;;;;;;5014590;28;19968;-66
2023/01/28 02:51:35;;;;;;;;;;;29.10;99.90;;;;;;5013653;28;20016;-66
2023/01/28 02:54:20;;;;;;;;;;;29.10;99.90;;;;;;5013834;28;19913;-70
2023/01/28 02:56:59;;;;;;;;;;;29.10;99.90;;;;;;5013563;28;19913;-71
2023/01/28 02:59:30;;;;;;;;;;;29.00;99.90;;;;;;5012373;28;20005;-74
2023/01/28 03:02:04;;;;;;;;;;;28.90;99.90;;;;;;5013240;28;19928;-74
2023/01/28 03:04:37;;;;;;;;;;;28.90;99.90;;;;;;5013572;28;19910;-68
2023/01/28 03:07:06;;;;;;;;;;;28.80;99.90;;;;;;5013539;28;19953;-72
2023/01/28 03:09:34;;;;;;;;;;;28.80;99.90;;;;;;5013669;28;19913;-67
2023/01/28 03:36:58;;;;;;;;;;;28.70;99.90;;;;;;5013369;28;19948;-65
2023/01/28 03:39:26;;;;;;;;;;;28.60;99.90;;;;;;5013425;28;19970;-65
2023/01/28 03:42:12;;;;;;;;;;;28.60;99.90;;;;;;5012234;28;19960;-66
2023/01/28 03:44:51;;;;;;;;;;;28.50;99.90;;;;;;5013674;28;20028;-69
2023/01/28 03:47:19;;;;;;;;;;;28.40;99.90;;;;;;5013215;28;20052;-69
2023/01/28 03:49:50;;;;;;;;;;;28.30;99.90;;;;;;5013061;28;19963;-66
2023/01/28 03:52:17;;;;;;;;;;;28.30;99.90;;;;;;5012793;28;20253;-66
2023/01/28 03:54:47;;;;;;;;;;;28.40;99.90;;;;;;5012998;28;20375;-66
2023/01/28 03:57:14;;;;;;;;;;;28.40;99.90;;;;;;5012386;28;19952;-65
2023/01/28 03:59:41;;;;;;;;;;;28.40;99.90;;;;;;4994442;28;19926;-67
2023/01/28 04:02:09;;;;;;;;;;;28.50;99.90;;;;;;5012730;28;20273;-66
2023/01/28 04:04:40;;;;;;;;;;;28.60;99.90;;;;;;5012880;28;19914;-65
2023/01/28 04:07:07;;;;;;;;;;;28.60;99.90;;;;;;5013001;28;20266;-65
2023/01/28 04:09:34;;;;;;;;;;;28.80;99.90;;;;;;5012789;28;19917;-64
2023/01/28 04:12:01;;;;;;;;;;;28.70;99.90;;;;;;5012482;28;19917;-64
2023/01/28 04:14:28;;;;;;;;;;;28.60;99.90;;;;;;5011847;28;19979;-65
2023/01/28 04:16:55;;;;;;;;;;;28.60;99.90;;;;;;5012010;28;19921;-65
2023/01/28 04:19:22;;;;;;;;;;;28.50;99.90;;;;;;5012697;28;19909;-71
2023/01/28 04:21:49;;;;;;;;;;;28.50;99.90;;;;;;5012337;28;20349;-66
2023/01/28 04:24:16;;;;;;;;;;;28.50;99.90;;;;;;5012244;28;19918;-66
2023/01/28 04:26:43;;;;;;;;;;;28.40;99.90;;;;;;5012871;28;19916;-69
2023/01/28 04:29:09;;;;;;;;;;;28.50;99.90;;;;;;5013114;28;19910;-66
2023/01/28 04:31:36;;;;;;;;;;;28.50;99.90;;;;;;5012375;28;19980;-65
2023/01/28 04:34:03;;;;;;;;;;;28.40;99.90;;;;;;5012058;28;19921;-65
2023/01/28 04:36:29;;;;;;;;;;;28.50;99.90;;;;;;5012326;28;19914;-63
2023/01/28 04:38:56;;;;;;;;;;;28.50;99.90;;;;;;5011395;28;19921;-62
2023/01/28 04:41:23;;;;;;;;;;;28.40;99.90;;;;;;5010541;28;19944;-62
2023/01/28 04:43:51;;;;;;;;;;;28.40;99.90;;;;;;5012062;28;19914;-62
2023/01/28 04:46:17;;;;;;;;;;;28.30;99.90;;;;;;5012855;28;19916;-62
2023/01/28 04:48:44;;;;;;;;;;;28.40;99.90;;;;;;5012777;28;20382;-65
2023/01/28 04:51:11;;;;;;;;;;;28.50;99.90;;;;;;4994348;28;19936;-65
2023/01/28 04:53:37;;;;;;;;;;;28.50;99.90;;;;;;5011647;28;19948;-63
2023/01/28 04:56:04;;;;;;;;;;;28.40;99.90;;;;;;5013102;28;19913;-62
2023/01/28 04:58:31;;;;;;;;;;;28.40;99.90;;;;;;5015120;28;20016;-70
2023/01/28 05:00:58;;;;;;;;;;;28.40;99.90;;;;;;5012169;28;19921;-64
2023/01/28 05:03:25;;;;;;;;;;;28.40;99.90;;;;;;5012518;28;19910;-63
2023/01/28 05:05:52;;;;;;;;;;;28.30;99.90;;;;;;5012645;28;19996;-64
2023/01/28 05:08:18;;;;;;;;;;;28.30;99.90;;;;;;5012608;28;19981;-62
2023/01/28 05:10:45;;;;;;;;;;;28.20;99.90;;;;;;5013546;28;20284;-65
2023/01/28 05:13:13;;;;;;;;;;;28.10;99.90;;;;;;5013613;28;19940;-62
2023/01/28 05:15:40;;;;;;;;;;;28.10;99.90;;;;;;5012695;28;20003;-63
2023/01/28 05:18:06;;;;;;;;;;;28.10;99.90;;;;;;5012274;28;19913;-63
2023/01/28 05:20:33;;;;;;;;;;;28.00;99.90;;;;;;5011244;28;20000;-65
2023/01/28 05:23:01;;;;;;;;;;;27.90;99.90;;;;;;5010767;28;19913;-62
2023/01/28 05:25:27;;;;;;;;;;;27.90;99.90;;;;;;5011180;28;19913;-65
2023/01/28 05:27:54;;;;;;;;;;;27.90;99.90;;;;;;5011810;28;19956;-65
2023/01/28 05:30:21;;;;;;;;;;;28.00;99.90;;;;;;5011673;28;19968;-69
2023/01/28 05:32:47;;;;;;;;;;;28.00;99.90;;;;;;5012062;28;19940;-63
2023/01/28 05:35:14;;;;;;;;;;;28.00;99.90;;;;;;5011648;28;19980;-62
2023/01/28 05:37:41;;;;;;;;;;;27.90;99.90;;;;;;5011112;28;20016;-65
2023/01/28 05:40:08;;;;;;;;;;;27.70;99.90;;;;;;5011209;28;20345;-65
2023/01/28 05:42:34;;;;;;;;;;;27.70;99.90;;;;;;5011492;28;19949;-70
2023/01/28 05:45:01;;;;;;;;;;;27.70;99.90;;;;;;5011266;28;19909;-67
2023/01/28 05:47:28;;;;;;;;;;;27.70;99.90;;;;;;5011271;28;19913;-68
2023/01/28 05:49:54;;;;;;;;;;;27.70;99.90;;;;;;5010737;28;19913;-67
2023/01/28 05:52:21;;;;;;;;;;;27.70;99.90;;;;;;5011026;28;20284;-62
2023/01/28 05:54:47;;;;;;;;;;;27.70;99.90;;;;;;5015340;28;19917;-63
2023/01/28 05:57:14;;;;;;;;;;;27.60;99.90;;;;;;5014378;28;20343;-63
2023/01/28 05:59:41;;;;;;;;;;;27.50;99.90;;;;;;5015198;28;19925;-71
2023/01/28 06:02:07;;;;;;;;;;;27.60;99.90;;;;;;5008682;28;19913;-67
2023/01/28 06:04:34;;;;;;;;;;;27.60;99.90;;;;;;5006828;28;19913;-64
2023/01/28 06:07:01;;;;;;;;;;;27.60;99.90;;;;;;5006729;28;19995;-64
2023/01/28 06:09:27;;;;;;;;;;;27.60;99.90;;;;;;5006134;28;20327;-69
2023/01/28 06:11:54;;;;;;;;;;;27.60;99.90;;;;;;5006017;28;19925;-72
2023/01/28 06:14:21;;;;;;;;;;;27.60;99.90;;;;;;5006527;28;19918;-64
2023/01/28 06:16:47;;;;;;;;;;;27.60;99.90;;;;;;5006498;28;20622;-64
2023/01/28 06:19:14;;;;;;;;;;;27.50;99.90;;;;;;5006183;28;19914;-64
2023/01/28 06:21:42;;;;;;;;;;;27.50;99.90;;;;;;5005701;28;19933;-64
2023/01/28 06:24:08;;;;;;;;;;;27.40;99.90;;;;;;5006864;28;19913;-65
2023/01/28 06:26:35;;;;;;;;;;;27.40;99.90;;;;;;5006023;28;19948;-66
2023/01/28 06:29:02;;;;;;;;;;;27.40;99.90;;;;;;5006157;28;19913;-69
2023/01/28 06:31:29;;;;;;;;;;;27.30;99.90;;;;;;5005752;28;20499;-76
2023/01/28 06:33:55;;;;;;;;;;;27.30;99.90;;;;;;5005944;28;19925;-70
2023/01/28 06:36:22;;;;;;;;;;;27.20;99.90;;;;;;5005469;28;19921;-73
2023/01/28 06:38:48;;;;;;;;;;;27.20;99.90;;;;;;5003290;28;19921;-72
2023/01/28 06:41:15;;;;;;;;;;;27.10;99.90;;;;;;5005101;28;19958;-67
2023/01/28 06:43:42;;;;;;;;;;;27.10;99.90;;;;;;5005543;28;19921;-65
2023/01/28 06:46:09;;;;;;;;;;;27.00;99.90;;;;;;5005627;28;19948;-71
2023/01/28 06:48:35;;;;;;;;;;;27.10;99.90;;;;;;5006403;28;19948;-66
2023/01/28 06:51:02;;;;;;;;;;;26.90;99.90;;;;;;5005880;28;19921;-64
2023/01/28 06:53:29;;;;;;;;;;;26.80;99.90;;;;;;5020714;28;19992;-64
2023/01/28 06:55:55;;;;;;;;;;;26.80;99.90;;;;;;5005429;28;19924;-70
2023/01/28 06:58:22;;;;;;;;;;;26.90;99.90;;;;;;5004706;28;20367;-68
2023/01/28 07:00:49;;;;;;;;;;;26.90;99.90;;;;;;5004605;28;20443;-67
2023/01/28 07:03:19;;;;;;;;;;;26.90;99.90;;;;;;5004224;28;20286;-67
2023/01/28 07:05:46;;;;;;;;;;;26.80;99.90;;;;;;5011220;28;20382;-64
2023/01/28 07:08:12;;;;;;;;;;;26.80;99.90;;;;;;5011689;28;19952;-68
2023/01/28 07:10:39;;;;;;;;;;;26.70;99.90;;;;;;5011510;28;19910;-66
2023/01/28 07:13:06;;;;;;;;;;;26.70;99.90;;;;;;5011249;28;19975;-66
2023/01/28 07:15:32;;;;;;;;;;;26.60;99.90;;;;;;5011858;28;20364;-64
2023/01/28 07:17:59;;;;;;;;;;;26.70;99.90;;;;;;5011870;28;19913;-74
2023/01/28 07:20:26;;;;;;;;;;;26.50;99.90;;;;;;5011113;28;19924;-70
2023/01/28 07:22:52;;;;;;;;;;;26.40;99.90;;;;;;5011066;28;20423;-67
2023/01/28 07:25:19;;;;;;;;;;;26.40;99.90;;;;;;5012037;28;19916;-71
2023/01/28 07:27:46;;;;;;;;;;;26.40;99.90;;;;;;5012233;28;19918;-75
2023/01/28 07:30:13;;;;;;;;;;;26.40;99.90;;;;;;5011708;28;20280;-66
2023/01/28 07:32:40;;;;;;;;;;;26.40;99.90;;;;;;5011782;28;19922;-74
2023/01/28 07:35:07;;;;;;;;;;;26.40;99.90;;;;;;5011734;28;19917;-71
2023/01/28 07:37:33;;;;;;;;;;;26.40;99.90;;;;;;5011014;28;20376;-73
2023/01/28 07:40:00;;;;;;;;;;;26.40;99.90;;;;;;5011494;28;19937;-69
2023/01/28 07:42:27;;;;;;;;;;;26.30;99.90;;;;;;5011813;28;19968;-76
2023/01/28 07:44:53;;;;;;;;;;;26.30;99.90;;;;;;5011770;28;19913;-69
2023/01/28 07:47:20;;;;;;;;;;;26.30;99.90;;;;;;5010847;28;19976;-70
2023/01/28 07:49:46;;;;;;;;;;;26.20;99.90;;;;;;5011394;28;19920;-65
2023/01/28 07:52:14;;;;;;;;;;;26.30;99.90;;;;;;5010566;28;20053;-68
2023/01/28 07:54:40;;;;;;;;;;;26.20;99.90;;;;;;5011679;28;19910;-72
2023/01/28 07:57:10;;;;;;;;;;;26.10;99.90;;;;;;5011480;28;19910;-70
2023/01/28 07:59:37;;;;;;;;;;;26.20;99.90;;;;;;5010932;28;19954;-72
2023/01/28 08:02:04;;;;;;;;;;;26.10;99.90;;;;;;5011229;28;19975;-73
2023/01/28 08:04:30;;;;;;;;;;;26.10;99.90;;;;;;5012037;28;19992;-74
2023/01/28 08:06:57;;;;;;;;;;;26.00;99.90;;;;;;5012878;28;20060;-65
2023/01/28 08:09:24;;;;;;;;;;;26.10;99.90;;;;;;5008600;28;19917;-70
2023/01/28 08:11:51;;;;;;;;;;;26.00;99.90;;;;;;5003864;28;19928;-69
2023/01/28 08:14:18;;;;;;;;;;;26.10;99.90;;;;;;5004344;28;19924;-66
2023/01/28 08:16:44;;;;;;;;;;;26.00;99.90;;;;;;5004234;28;20024;-65
2023/01/28 08:19:11;;;;;;;;;;;25.90;99.90;;;;;;5004182;28;19991;-64
2023/01/28 08:21:38;;;;;;;;;;;26.00;99.90;;;;;;5002748;28;20670;-64
2023/01/28 08:24:05;;;;;;;;;;;25.90;99.90;;;;;;5002963;28;19917;-68
2023/01/28 08:26:31;;;;;;;;;;;26.00;99.90;;;;;;5003824;28;19968;-68
2023/01/28 08:28:58;;;;;;;;;;;25.90;99.90;;;;;;5004101;28;19922;-68
2023/01/28 08:31:24;;;;;;;;;;;25.90;99.90;;;;;;5017368;28;19979;-63
2023/01/28 08:33:51;;;;;;;;;;;25.90;99.90;;;;;;5003653;28;19918;-75
2023/01/28 08:36:18;;;;;;;;;;;25.90;99.90;;;;;;5003543;28;19913;-64
2023/01/28 08:38:44;;;;;;;;;;;25.80;99.90;;;;;;5003323;28;19924;-69
2023/01/28 08:41:11;;;;;;;;;;;25.80;99.90;;;;;;5003619;28;19913;-63
2023/01/28 08:43:38;;;;;;;;;;;25.80;99.90;;;;;;5002859;28;19913;-72
2023/01/28 08:46:06;;;;;;;;;;;25.70;99.90;;;;;;5002915;28;19921;-63
2023/01/28 08:48:33;;;;;;;;;;;25.70;99.90;;;;;;5003162;28;19924;-64
2023/01/28 08:50:59;;;;;;;;;;;25.50;99.90;;;;;;5003020;28;19921;-64
2023/01/28 08:53:26;;;;;;;;;;;25.40;99.90;;;;;;5003071;28;19928;-66
2023/01/28 08:55:53;;;;;;;;;;;25.50;99.90;;;;;;5002694;28;20027;-66
2023/01/28 08:58:20;;;;;;;;;;;25.40;99.90;;;;;;5003327;28;20367;-64
2023/01/28 09:00:48;;;;;;;;;;;25.30;99.90;;;;;;5003082;28;20522;-66
2023/01/28 09:03:15;;;;;;;;;;;25.40;99.90;;;;;;5003295;28;20024;-67
2023/01/28 09:05:41;;;;;;;;;;;25.40;99.90;;;;;;5003766;28;20672;-65
2023/01/28 09:08:13;;;;;;;;;;;25.30;99.90;;;;;;5003418;28;19913;-64
2023/01/28 09:10:41;;;;;;;;;;;25.20;99.90;;;;;;5002196;28;19921;-70
2023/01/28 09:13:09;;;;;;;;;;;25.20;99.90;;;;;;5003589;28;19925;-70
2023/01/28 09:15:36;;;;;;;;;;;25.20;99.90;;;;;;5003230;28;19921;-64
2023/01/28 09:18:03;;;;;;;;;;;25.30;99.90;;;;;;5003332;28;20374;-63
2023/01/28 09:20:31;;;;;;;;;;;25.30;99.90;;;;;;5003205;28;20359;-68
2023/01/28 09:22:59;;;;;;;;;;;25.30;99.90;;;;;;5003145;28;19960;-67
2023/01/28 09:25:26;;;;;;;;;;;25.20;99.90;;;;;;5001850;28;19947;-71
2023/01/28 09:27:53;;;;;;;;;;;25.10;99.90;;;;;;5002087;28;20419;-64
2023/01/28 09:30:19;;;;;;;;;;;25.20;99.90;;;;;;5010865;28;20431;-68
2023/01/28 09:32:49;;;;;;;;;;;25.00;99.90;;;;;;5011820;28;19932;-70
2023/01/28 09:35:16;;;;;;;;;;;25.10;99.90;;;;;;5011737;28;19913;-64
2023/01/28 09:37:43;;;;;;;;;;;25.10;99.90;;;;;;5011665;28;19914;-64
2023/01/28 09:40:30;;;;;;;;;;;25.00;99.90;;;;;;5010368;28;19910;-69
2023/01/28 09:42:56;;;;;;;;;;;25.00;99.90;;;;;;5000889;28;19917;-64
2023/01/28 09:45:41;;;;;;;;;;;25.00;99.90;;;;;;5003458;28;19913;-65
2023/01/28 09:48:29;;;;;;;;;;;25.10;99.90;;;;;;5003436;28;19913;-72
2023/01/28 09:50:57;;;;;;;;;;;24.90;99.90;;;;;;4992643;28;20446;-64
2023/01/28 09:53:38;;;;;;;;;;;25.00;99.90;;;;;;5002887;28;19955;-64
2023/01/28 09:56:07;;;;;;;;;;;24.90;99.90;;;;;;5003104;28;19929;-64
2023/01/28 09:58:34;;;;;;;;;;;24.90;99.90;;;;;;5002581;28;19913;-71
2023/01/28 10:01:01;;;;;;;;;;;24.90;99.90;;;;;;5002081;28;19969;-64
2023/01/28 10:03:33;;;;;;;;;;;24.80;99.90;;;;;;5001517;28;19924;-68
2023/01/28 10:06:03;;;;;;;;;;;25.00;99.90;;;;;;5003328;28;19914;-70
2023/01/28 10:08:33;;;;;;;;;;;24.90;99.90;;;;;;5003173;28;19914;-76
2023/01/28 10:11:11;;;;;;;;;;;24.90;99.90;;;;;;5002948;28;19931;-72
2023/01/28 10:13:40;;;;;;;;;;;24.80;99.90;;;;;;5003371;28;20364;-65
2023/01/28 10:16:18;;;;;;;;;;;24.90;99.90;;;;;;5002815;28;19967;-75
2023/01/28 10:18:45;;;;;;;;;;;25.00;99.90;;;;;;5003164;28;19913;-67
2023/01/28 10:21:18;;;;;;;;;;;24.80;99.90;;;;;;5002039;28;19999;-72
2023/01/28 10:23:54;;;;;;;;;;;25.00;99.90;;;;;;5003310;28;19914;-74
2023/01/28 10:26:26;;;;;;;;;;;24.80;99.90;;;;;;5003550;28;19932;-72
2023/01/28 10:28:55;;;;;;;;;;;24.80;99.90;;;;;;5003279;28;19945;-73
2023/01/28 10:31:23;;;;;;;;;;;24.90;99.90;;;;;;5002233;28;20031;-71
2023/01/28 10:33:49;;;;;;;;;;;24.80;99.90;;;;;;5001608;28;20032;-70
2023/01/28 10:36:17;;;;;;;;;;;24.90;99.90;;;;;;5002157;28;19972;-74
2023/01/28 10:38:44;;;;;;;;;;;24.80;99.90;;;;;;5003078;28;19918;-65
2023/01/28 10:41:12;;;;;;;;;;;24.80;99.90;;;;;;5006598;28;19913;-67
2023/01/28 10:43:40;;;;;;;;;;;24.70;99.90;;;;;;5006198;28;19983;-67
2023/01/28 10:46:19;;;;;;;;;;;24.80;99.90;;;;;;5005300;28;19918;-64
2023/01/28 10:48:52;;;;;;;;;;;24.80;99.90;;;;;;5005816;28;19913;-66
2023/01/28 10:51:29;;;;;;;;;;;24.70;99.90;;;;;;5005335;28;20447;-71
2023/01/28 10:53:56;;;;;;;;;;;24.80;99.90;;;;;;5006132;28;19975;-67
2023/01/28 10:56:25;;;;;;;;;;;24.80;99.90;;;;;;5006071;28;20387;-77
2023/01/28 10:58:57;;;;;;;;;;;24.70;99.90;;;;;;5005660;28;19921;-74
2023/01/28 11:01:23;;;;;;;;;;;24.70;99.90;;;;;;5004539;28;19932;-68
2023/01/28 11:03:54;;;;;;;;;;;24.80;99.90;;;;;;5006038;28;19914;-71
2023/01/28 11:06:28;;;;;;;;;;;24.80;99.90;;;;;;5006129;28;20284;-68
2023/01/28 11:08:55;;;;;;;;;;;24.70;99.90;;;;;;5004637;28;19925;-67
2023/01/28 11:11:26;;;;;;;;;;;24.70;99.90;;;;;;5004691;28;19975;-76
2023/01/28 11:13:57;;;;;;;;;;;24.70;99.90;;;;;;5005619;28;20339;-70
2023/01/28 11:16:24;;;;;;;;;;;24.70;99.90;;;;;;5004995;28;19917;-73
2023/01/28 11:18:54;;;;;;;;;;;24.80;99.90;;;;;;5005665;28;19921;-65
2023/01/28 11:21:23;;;;;;;;;;;24.60;99.90;;;;;;5005530;28;19913;-68
2023/01/28 11:23:53;;;;;;;;;;;24.60;99.90;;;;;;5005325;28;19918;-68
2023/01/28 11:26:25;;;;;;;;;;;24.70;99.90;;;;;;5006152;28;20395;-64
2023/01/28 11:28:52;;;;;;;;;;;24.70;99.90;;;;;;5005356;28;19913;-67
2023/01/28 11:31:20;;;;;;;;;;;24.80;99.90;;;;;;5004234;28;20015;-65
2023/01/28 11:34:05;;;;;;;;;;;24.70;99.90;;;;;;5004708;28;19966;-69
2023/01/28 11:36:33;;;;;;;;;;;24.70;99.90;;;;;;5005336;28;19913;-63
2023/01/28 11:39:19;;;;;;;;;;;24.70;99.90;;;;;;5005169;28;19921;-63
2023/01/28 11:41:46;;;;;;;;;;;24.60;99.90;;;;;;5016194;28;20003;-71
2023/01/28 11:44:13;;;;;;;;;;;24.60;99.90;;;;;;5004192;28;19918;-68
2023/01/28 11:46:58;;;;;;;;;;;24.70;99.90;;;;;;5005026;28;20008;-70
2023/01/28 11:49:37;;;;;;;;;;;24.60;99.90;;;;;;5004958;28;20359;-71
2023/01/28 11:52:16;;;;;;;;;;;24.60;99.90;;;;;;5005251;28;20307;-67
2023/01/28 11:54:46;;;;;;;;;;;24.60;99.90;;;;;;5005029;28;19913;-66
2023/01/28 11:57:22;;;;;;;;;;;24.60;99.90;;;;;;5010043;28;19924;-63
2023/01/28 12:00:05;;;;;;;;;;;24.60;99.90;;;;;;5008014;28;19983;-63
2023/01/28 12:02:56;;;;;;;;;;;24.60;99.90;;;;;;5013175;28;20294;-63
2023/01/28 12:05:29;;;;;;;;;;;24.60;99.90;;;;;;5005580;28;19961;-68
2023/01/28 12:08:10;;;;;;;;;;;24.60;99.90;;;;;;5013091;28;20407;-63
2023/01/28 12:10:37;;;;;;;;;;;24.60;99.90;;;;;;5011858;28;19913;-69
2023/01/28 12:13:16;;;;;;;;;;;24.50;99.90;;;;;;5012835;28;19976;-64
2023/01/28 12:15:56;;;;;;;;;;;24.60;99.90;;;;;;5013422;28;19917;-63
2023/01/28 12:18:41;;;;;;;;;;;24.50;99.90;;;;;;5012886;28;19921;-70
2023/01/28 12:21:20;;;;;;;;;;;24.50;99.90;;;;;;5012700;28;19916;-65
2023/01/28 12:23:50;;;;;;;;;;;24.60;99.90;;;;;;5012822;28;20440;-63
2023/01/28 12:26:36;;;;;;;;;;;24.50;99.90;;;;;;5012088;28;19920;-63
2023/01/28 12:29:29;;;;;;;;;;;24.60;99.90;;;;;;4980742;28;19924;-65
2023/01/28 12:32:11;;;;;;;;;;;24.50;99.90;;;;;;5009968;28;20000;-63
2023/01/28 12:34:50;;;;;;;;;;;24.50;99.90;;;;;;5012127;28;19920;-63
2023/01/28 12:37:34;;;;;;;;;;;24.50;99.90;;;;;;5012415;28;20007;-64
2023/01/28 12:40:13;;;;;;;;;;;24.50;99.90;;;;;;5011156;28;19910;-63
2023/01/28 12:42:52;;;;;;;;;;;24.50;99.90;;;;;;5012704;28;19920;-63
2023/01/28 12:45:22;;;;;;;;;;;24.50;99.90;;;;;;5012624;28;19909;-65
2023/01/28 12:48:14;;;;;;;;;;;24.60;99.90;;;;;;5012362;28;19992;-63
2023/01/28 12:50:41;;;;;;;;;;;24.60;99.90;;;;;;5009336;28;19909;-64
2023/01/28 12:53:14;;;;;;;;;;;24.50;99.90;;;;;;5012300;28;20388;-65
2023/01/28 12:55:46;;;;;;;;;;;24.50;99.90;;;;;;5005731;28;20327;-67
2023/01/28 12:58:18;;;;;;;;;;;24.50;99.90;;;;;;5003552;28;19918;-63
2023/01/28 13:00:57;;;;;;;;;;;24.50;99.90;;;;;;5003502;28;19933;-67
2023/01/28 13:03:34;;;;;;;;;;;24.50;99.90;;;;;;5009351;28;20015;-64
2023/01/28 13:06:08;;;;;;;;;;;24.50;99.90;;;;;;5011737;28;19910;-63
2023/01/28 13:08:34;;;;;;;;;;;24.50;99.90;;;;;;5011171;28;19914;-65
2023/01/28 13:11:03;;;;;;;;;;;24.50;99.90;;;;;;5009248;28;19979;-63
2023/01/28 13:13:30;;;;;;;;;;;24.40;99.90;;;;;;5024678;28;19913;-64
2023/01/28 13:15:57;;;;;;;;;;;24.50;99.90;;;;;;5010373;28;19918;-71
2023/01/28 13:18:32;;;;;;;;;;;24.50;99.90;;;;;;5010091;28;19921;-65
2023/01/28 13:21:00;;;;;;;;;;;24.40;99.90;;;;;;5010239;28;19917;-63
2023/01/28 13:23:47;;;;;;;;;;;24.50;99.90;;;;;;5010121;28;19910;-64
2023/01/28 13:26:19;;;;;;;;;;;24.40;99.90;;;;;;5010843;28;19917;-63
2023/01/28 13:28:46;;;;;;;;;;;24.40;99.90;;;;;;5011282;28;20442;-67
2023/01/28 13:31:17;;;;;;;;;;;24.40;99.90;;;;;;5010498;28;19928;-67
2023/01/28 13:34:02;;;;;;;;;;;24.40;99.90;;;;;;5011768;28;20280;-65
2023/01/28 13:36:36;;;;;;;;;;;24.30;99.90;;;;;;5011630;28;19992;-64
2023/01/28 13:39:11;;;;;;;;;;;24.30;99.90;;;;;;5011757;28;20376;-66
2023/01/28 13:41:38;;;;;;;;;;;24.50;99.90;;;;;;5011321;28;20317;-63
2023/01/28 13:44:17;;;;;;;;;;;24.50;99.90;;;;;;5011947;28;20645;-64
2023/01/28 13:46:43;;;;;;;;;;;24.50;99.90;;;;;;5010706;28;20360;-66
2023/01/28 13:49:13;;;;;;;;;;;24.40;99.90;;;;;;5012095;28;19910;-64
2023/01/28 13:51:44;;;;;;;;;;;24.30;99.90;;;;;;5010631;28;19919;-64
2023/01/28 13:54:16;;;;;;;;;;;24.30;99.90;;;;;;5011833;28;19910;-68
2023/01/28 13:56:49;;;;;;;;;;;24.30;99.90;;;;;;5011857;28;19960;-71
2023/01/28 13:59:27;;;;;;;;;;;24.30;99.90;;;;;;5011574;28;20357;-68
2023/01/28 14:02:05;;;;;;;;;;;24.40;99.90;;;;;;5011756;28;19921;-69
2023/01/28 14:04:40;;;;;;;;;;;24.30;99.90;;;;;;5011852;28;19925;-65
2023/01/28 14:07:13;;;;;;;;;;;24.40;99.90;;;;;;5011947;28;19915;-69
2023/01/28 14:09:46;;;;;;;;;;;24.40;99.90;;;;;;5011237;28;19968;-67
2023/01/28 14:12:22;;;;;;;;;;;24.40;99.90;;;;;;5011756;28;20000;-66
2023/01/28 14:14:51;;;;;;;;;;;24.30;99.90;;;;;;5015574;28;19910;-66
2023/01/28 14:17:21;;;;;;;;;;;24.40;99.90;;;;;;5015433;28;20008;-65
2023/01/28 14:19:49;;;;;;;;;;;24.40;99.90;;;;;;5015348;28;19916;-65
2023/01/28 14:22:18;;;;;;;;;;;24.30;99.90;;;;;;5015502;28;19920;-65
2023/01/28 14:24:45;;;;;;;;;;;24.40;99.90;;;;;;5015539;28;19909;-64
2023/01/28 14:27:11;;;;;;;;;;;24.30;99.90;;;;;;5015330;28;20311;-63
2023/01/28 14:29:38;;;;;;;;;;;24.40;99.90;;;;;;5015220;28;19909;-64
2023/01/28 14:32:25;;;;;;;;;;;24.40;99.90;;;;;;5015134;28;20404;-65
2023/01/28 14:34:53;;;;;;;;;;;24.30;99.90;;;;;;5015161;28;20388;-64
2023/01/28 14:37:20;;;;;;;;;;;24.40;99.90;;;;;;5014922;28;19967;-64
2023/01/28 14:39:53;;;;;;;;;;;24.30;99.90;;;;;;5014748;28;20353;-64
2023/01/28 14:42:24;;;;;;;;;;;24.40;99.90;;;;;;5015088;28;19944;-64
2023/01/28 14:45:14;;;;;;;;;;;24.30;99.90;;;;;;5015020;28;20292;-68
2023/01/28 14:47:50;;;;;;;;;;;24.30;99.90;;;;;;5014804;28;20003;-64
2023/01/28 14:50:16;;;;;;;;;;;24.30;99.90;;;;;;5014692;28;19964;-64
2023/01/28 14:52:55;;;;;;;;;;;24.20;99.90;;;;;;5014958;28;19917;-66
2023/01/28 14:55:29;;;;;;;;;;;24.30;99.90;;;;;;5014713;28;20004;-64
2023/01/28 14:58:02;;;;;;;;;;;24.30;99.90;;;;;;5014675;28;20013;-64
2023/01/28 15:00:30;;;;;;;;;;;24.30;99.90;;;;;;5013958;28;19929;-65